sensor_id;sensor_type;location;lat;lon;timestamp;pressure;altitude;pressure_sealevel;temperature;humidity
53689;BME280;39583;54.682;30.662;2023-04-27T08:14:33;98879.38;;;8.74;100.00
53689;BME280;39583;54.682;30.662;2023-04-27T08:17:00;98871.78;;;9.08;100.00
53689;BME280;39583;54.682;30.662;2023-04-27T08:19:26;98846.25;;;9.17;99.43
53689;BME280;39583;54.682;30.662;2023-04-27T08:21:51;98883.31;;;9.45;97.53
53689;BME280;39583;54.682;30.662;2023-04-27T08:24:17;98878.84;;;9.39;96.56
53689;BME280;39583;54.682;30.662;2023-04-27T08:26:45;98887.34;;;9.36;96.00
53689;BME280;39583;54.682;30.662;2023-04-27T08:29:11;98884.97;;;9.28;95.74
53689;BME280;39583;54.682;30.662;2023-04-27T08:31:37;98887.81;;;9.33;95.64
53689;BME280;39583;54.682;30.662;2023-04-27T08:34:03;98888.03;;;9.31;95.67
53689;BME280;39583;54.682;30.662;2023-04-27T08:36:29;98889.38;;;9.40;95.62
53689;BME280;39583;54.682;30.662;2023-04-27T08:38:55;98897.19;;;9.24;94.44
53689;BME280;39583;54.682;30.662;2023-04-27T08:41:22;98888.03;;;9.31;95.18
53689;BME280;39583;54.682;30.662;2023-04-27T08:43:49;98889.59;;;9.39;95.06
53689;BME280;39583;54.682;30.662;2023-04-27T08:46:23;98896.44;;;9.35;94.59
53689;BME280;39583;54.682;30.662;2023-04-27T08:48:54;98890.72;;;9.31;94.71
53689;BME280;39583;54.682;30.662;2023-04-27T08:51:21;98856.41;;;9.15;94.82
53689;BME280;39583;54.682;30.662;2023-04-27T08:53:50;98884.88;;;9.34;95.13
53689;BME280;39583;54.682;30.662;2023-04-27T08:56:18;98887.03;;;9.44;95.09
53689;BME280;39583;54.682;30.662;2023-04-27T08:58:44;98889.03;;;9.49;95.23
53689;BME280;39583;54.682;30.662;2023-04-27T09:01:10;98896.81;;;9.57;95.02
53689;BME280;39583;54.682;30.662;2023-04-27T09:03:36;98896.69;;;9.63;94.91
53689;BME280;39583;54.682;30.662;2023-04-27T09:06:03;98893.34;;;9.68;94.53
53689;BME280;39583;54.682;30.662;2023-04-27T09:11:12;98882.41;;;9.51;93.56
53689;BME280;39583;54.682;30.662;2023-04-27T09:13:39;98890.03;;;9.36;93.41
53689;BME280;39583;54.682;30.662;2023-04-27T09:16:07;98889.47;;;9.15;93.11
53689;BME280;39583;54.682;30.662;2023-04-27T09:18:40;98893.41;;;8.95;93.34
53689;BME280;39583;54.682;30.662;2023-04-27T09:21:06;98890.63;;;8.83;93.59
53689;BME280;39583;54.682;30.662;2023-04-27T09:23:33;98905.81;;;8.71;93.49
53689;BME280;39583;54.682;30.662;2023-04-27T09:26:02;98920.63;;;8.55;93.84
53689;BME280;39583;54.682;30.662;2023-04-27T09:28:29;98941.00;;;8.38;93.89
53689;BME280;39583;54.682;30.662;2023-04-27T09:31:01;99010.75;;;8.31;94.20
53689;BME280;39583;54.682;30.662;2023-04-27T09:33:31;99016.41;;;8.23;94.74
53689;BME280;39583;54.682;30.662;2023-04-27T09:35:58;98987.34;;;8.13;94.83
53689;BME280;39583;54.682;30.662;2023-04-27T09:38:24;98959.56;;;8.08;94.75
53689;BME280;39583;54.682;30.662;2023-04-27T09:40:52;98952.75;;;8.05;95.35
53689;BME280;39583;54.682;30.662;2023-04-27T09:43:18;98952.13;;;8.10;95.70
53689;BME280;39583;54.682;30.662;2023-04-27T09:45:44;98958.69;;;8.14;95.86
53689;BME280;39583;54.682;30.662;2023-04-27T09:48:11;98959.28;;;8.16;96.22
53689;BME280;39583;54.682;30.662;2023-04-27T09:50:42;98952.78;;;8.30;96.67
53689;BME280;39583;54.682;30.662;2023-04-27T09:53:13;98936.09;;;8.35;96.68
53689;BME280;39583;54.682;30.662;2023-04-27T09:55:46;98951.53;;;8.33;96.49
53689;BME280;39583;54.682;30.662;2023-04-27T10:06:50;98944.19;;;9.69;98.06
53689;BME280;39583;54.682;30.662;2023-04-27T10:09:24;98952.31;;;9.81;96.12
53689;BME280;39583;54.682;30.662;2023-04-27T10:11:52;98951.78;;;9.91;95.23
53689;BME280;39583;54.682;30.662;2023-04-27T10:14:20;98946.41;;;10.02;95.33
53689;BME280;39583;54.682;30.662;2023-04-27T10:16:55;98948.47;;;10.19;95.10
53689;BME280;39583;54.682;30.662;2023-04-27T10:19:23;98952.53;;;10.51;95.68
53689;BME280;39583;54.682;30.662;2023-04-27T10:22:00;98928.09;;;10.88;95.65
53689;BME280;39583;54.682;30.662;2023-04-27T10:24:36;98945.31;;;11.22;93.37
53689;BME280;39583;54.682;30.662;2023-04-27T10:27:04;98951.84;;;11.38;93.75
53689;BME280;39583;54.682;30.662;2023-04-27T10:29:38;98960.03;;;11.43;92.67
53689;BME280;39583;54.682;30.662;2023-04-27T10:34:37;98972.84;;;11.24;91.66
53689;BME280;39583;54.682;30.662;2023-04-27T10:37:09;98974.72;;;11.35;91.91
53689;BME280;39583;54.682;30.662;2023-04-27T10:39:40;98977.88;;;11.20;90.55
53689;BME280;39583;54.682;30.662;2023-04-27T10:42:07;98972.94;;;11.17;90.62
53689;BME280;39583;54.682;30.662;2023-04-27T10:44:34;98987.25;;;11.06;90.47
53689;BME280;39583;54.682;30.662;2023-04-27T10:47:16;98980.59;;;10.97;88.92
53689;BME280;39583;54.682;30.662;2023-04-27T10:49:46;98981.28;;;10.81;87.66
53689;BME280;39583;54.682;30.662;2023-04-27T10:52:12;98977.63;;;10.75;88.58
53689;BME280;39583;54.682;30.662;2023-04-27T10:54:44;98985.25;;;10.78;88.75
53689;BME280;39583;54.682;30.662;2023-04-27T10:57:10;98983.34;;;10.67;88.42
53689;BME280;39583;54.682;30.662;2023-04-27T10:59:51;98987.81;;;10.61;88.92
53689;BME280;39583;54.682;30.662;2023-04-27T11:02:24;98989.13;;;10.71;89.77
53689;BME280;39583;54.682;30.662;2023-04-27T11:04:51;98984.19;;;10.79;89.53
53689;BME280;39583;54.682;30.662;2023-04-27T11:07:24;98980.91;;;10.77;89.51
53689;BME280;39583;54.682;30.662;2023-04-27T11:09:51;98983.13;;;10.80;89.44
53689;BME280;39583;54.682;30.662;2023-04-27T11:12:17;98981.63;;;10.73;89.00
53689;BME280;39583;54.682;30.662;2023-04-27T11:14:43;98985.94;;;10.74;90.03
53689;BME280;39583;54.682;30.662;2023-04-27T11:17:09;98990.75;;;10.72;89.14
53689;BME280;39583;54.682;30.662;2023-04-27T11:19:45;98999.28;;;10.80;89.32
53689;BME280;39583;54.682;30.662;2023-04-27T11:22:15;98972.97;;;10.82;89.82
53689;BME280;39583;54.682;30.662;2023-04-27T11:24:50;99002.13;;;11.09;89.49
53689;BME280;39583;54.682;30.662;2023-04-27T11:27:17;99007.06;;;11.23;89.27
53689;BME280;39583;54.682;30.662;2023-04-27T11:29:43;99006.59;;;11.15;88.31
53689;BME280;39583;54.682;30.662;2023-04-27T11:32:19;99013.97;;;10.96;88.63
53689;BME280;39583;54.682;30.662;2023-04-27T11:34:52;99013.00;;;10.90;88.50
53689;BME280;39583;54.682;30.662;2023-04-27T11:37:26;99016.84;;;10.71;88.48
53689;BME280;39583;54.682;30.662;2023-04-27T11:39:53;99019.69;;;10.34;87.27
53689;BME280;39583;54.682;30.662;2023-04-27T11:42:26;99023.38;;;10.22;88.49
53689;BME280;39583;54.682;30.662;2023-04-27T11:45:00;99007.47;;;10.02;88.26
53689;BME280;39583;54.682;30.662;2023-04-27T11:47:28;99019.97;;;9.96;88.06
53689;BME280;39583;54.682;30.662;2023-04-27T11:49:59;99029.00;;;9.84;88.88
53689;BME280;39583;54.682;30.662;2023-04-27T11:52:33;99001.69;;;9.68;89.66
53689;BME280;39583;54.682;30.662;2023-04-27T11:55:00;99025.59;;;9.77;89.32
53689;BME280;39583;54.682;30.662;2023-04-27T11:57:30;99007.13;;;9.62;89.76
53689;BME280;39583;54.682;30.662;2023-04-27T11:59:58;99014.38;;;9.80;89.94
53689;BME280;39583;54.682;30.662;2023-04-27T12:02:26;99024.22;;;9.86;89.96
53689;BME280;39583;54.682;30.662;2023-04-27T12:04:52;99027.59;;;9.81;89.75
53689;BME280;39583;54.682;30.662;2023-04-27T12:07:18;99038.72;;;9.85;90.26
53689;BME280;39583;54.682;30.662;2023-04-27T12:09:44;99049.25;;;9.68;89.42
53689;BME280;39583;54.682;30.662;2023-04-27T12:12:10;99052.47;;;9.58;90.06
53689;BME280;39583;54.682;30.662;2023-04-27T12:14:37;99061.22;;;9.54;90.27
53689;BME280;39583;54.682;30.662;2023-04-27T12:17:03;99071.66;;;9.62;90.33
53689;BME280;39583;54.682;30.662;2023-04-27T12:19:29;99069.63;;;9.57;89.39
53689;BME280;39583;54.682;30.662;2023-04-27T12:21:56;99068.81;;;9.38;88.97
53689;BME280;39583;54.682;30.662;2023-04-27T12:24:22;99068.09;;;9.25;89.42
53689;BME280;39583;54.682;30.662;2023-04-27T12:26:48;99086.00;;;9.12;89.41
53689;BME280;39583;54.682;30.662;2023-04-27T12:29:16;99067.19;;;9.12;90.27
53689;BME280;39583;54.682;30.662;2023-04-27T12:31:42;99091.50;;;9.18;90.19
53689;BME280;39583;54.682;30.662;2023-04-27T12:34:08;99088.66;;;9.12;90.25
53689;BME280;39583;54.682;30.662;2023-04-27T12:36:34;99087.63;;;9.13;90.89
53689;BME280;39583;54.682;30.662;2023-04-27T12:39:15;99068.75;;;8.95;90.32
53689;BME280;39583;54.682;30.662;2023-04-27T12:41:45;99099.59;;;9.11;90.89
53689;BME280;39583;54.682;30.662;2023-04-27T12:44:13;99098.38;;;9.13;90.62
53689;BME280;39583;54.682;30.662;2023-04-27T12:46:42;99109.75;;;9.09;90.58
53689;BME280;39583;54.682;30.662;2023-04-27T12:49:09;99108.41;;;9.00;90.39
53689;BME280;39583;54.682;30.662;2023-04-27T12:51:36;99104.78;;;8.88;89.93
53689;BME280;39583;54.682;30.662;2023-04-27T12:54:02;99116.44;;;8.68;89.80
53689;BME280;39583;54.682;30.662;2023-04-27T12:56:29;99114.88;;;8.54;90.12
53689;BME280;39583;54.682;30.662;2023-04-27T12:58:55;99128.41;;;8.34;89.36
53689;BME280;39583;54.682;30.662;2023-04-27T13:01:21;99122.66;;;8.17;89.76
53689;BME280;39583;54.682;30.662;2023-04-27T13:03:58;99116.22;;;8.25;90.72
53689;BME280;39583;54.682;30.662;2023-04-27T13:06:24;99127.41;;;8.22;90.34
53689;BME280;39583;54.682;30.662;2023-04-27T13:08:50;99116.47;;;8.17;90.61
53689;BME280;39583;54.682;30.662;2023-04-27T13:11:16;99132.34;;;8.18;90.88
53689;BME280;39583;54.682;30.662;2023-04-27T13:13:43;99140.59;;;8.23;91.27
53689;BME280;39583;54.682;30.662;2023-04-27T13:16:09;99143.72;;;8.20;90.99
53689;BME280;39583;54.682;30.662;2023-04-27T13:18:36;99146.38;;;8.20;90.98
53689;BME280;39583;54.682;30.662;2023-04-27T13:21:03;99149.69;;;8.22;90.93
53689;BME280;39583;54.682;30.662;2023-04-27T13:23:30;99152.16;;;8.17;90.81
53689;BME280;39583;54.682;30.662;2023-04-27T13:25:56;99148.63;;;8.23;91.51
53689;BME280;39583;54.682;30.662;2023-04-27T13:28:23;99152.38;;;8.16;90.62
53689;BME280;39583;54.682;30.662;2023-04-27T13:30:50;99150.13;;;8.13;90.44
53689;BME280;39583;54.682;30.662;2023-04-27T13:33:16;99155.31;;;8.08;90.25
53689;BME280;39583;54.682;30.662;2023-04-27T13:35:42;99147.47;;;7.99;90.05
53689;BME280;39583;54.682;30.662;2023-04-27T13:38:08;99148.28;;;8.00;90.37
53689;BME280;39583;54.682;30.662;2023-04-27T13:40:34;99154.88;;;8.04;90.67
53689;BME280;39583;54.682;30.662;2023-04-27T13:43:00;99151.97;;;8.12;90.77
53689;BME280;39583;54.682;30.662;2023-04-27T13:45:26;99147.59;;;8.24;90.60
53689;BME280;39583;54.682;30.662;2023-04-27T13:47:52;99163.47;;;8.39;90.94
53689;BME280;39583;54.682;30.662;2023-04-27T13:50:19;99154.53;;;8.52;90.20
53689;BME280;39583;54.682;30.662;2023-04-27T13:52:45;99159.59;;;8.67;91.26
53689;BME280;39583;54.682;30.662;2023-04-27T13:55:11;99159.69;;;8.85;91.46
53689;BME280;39583;54.682;30.662;2023-04-27T13:57:37;99166.06;;;8.91;90.51
53689;BME280;39583;54.682;30.662;2023-04-27T14:00:04;99145.66;;;8.83;90.32
53689;BME280;39583;54.682;30.662;2023-04-27T14:02:36;99167.19;;;9.08;89.92
53689;BME280;39583;54.682;30.662;2023-04-27T14:05:03;99168.13;;;9.20;89.80
53689;BME280;39583;54.682;30.662;2023-04-27T14:07:30;99158.44;;;9.19;89.42
53689;BME280;39583;54.682;30.662;2023-04-27T14:10:03;99179.72;;;9.45;89.84
53689;BME280;39583;54.682;30.662;2023-04-27T14:12:30;99151.09;;;9.33;88.37
53689;BME280;39583;54.682;30.662;2023-04-27T14:14:57;99181.94;;;9.55;89.03
53689;BME280;39583;54.682;30.662;2023-04-27T14:17:23;99174.78;;;9.42;88.63
53689;BME280;39583;54.682;30.662;2023-04-27T14:19:49;99176.47;;;9.37;88.11
53689;BME280;39583;54.682;30.662;2023-04-27T14:22:15;99178.16;;;9.38;88.85
53689;BME280;39583;54.682;30.662;2023-04-27T14:24:41;99182.19;;;9.47;88.88
53689;BME280;39583;54.682;30.662;2023-04-27T14:27:07;99185.88;;;9.53;88.75
53689;BME280;39583;54.682;30.662;2023-04-27T14:29:32;99191.91;;;9.48;88.59
53689;BME280;39583;54.682;30.662;2023-04-27T14:31:58;99193.22;;;9.39;88.14
53689;BME280;39583;54.682;30.662;2023-04-27T14:34:25;99196.34;;;9.36;88.18
53689;BME280;39583;54.682;30.662;2023-04-27T14:36:51;99192.66;;;9.30;87.93
53689;BME280;39583;54.682;30.662;2023-04-27T14:39:17;99189.91;;;9.12;86.48
53689;BME280;39583;54.682;30.662;2023-04-27T14:41:43;99208.56;;;9.00;86.67
53689;BME280;39583;54.682;30.662;2023-04-27T14:44:09;99197.19;;;8.98;87.58
53689;BME280;39583;54.682;30.662;2023-04-27T14:46:35;99202.16;;;9.01;87.88
53689;BME280;39583;54.682;30.662;2023-04-27T14:49:01;99200.31;;;9.02;88.06
53689;BME280;39583;54.682;30.662;2023-04-27T14:51:27;99200.31;;;8.95;87.68
53689;BME280;39583;54.682;30.662;2023-04-27T14:53:57;99197.94;;;8.80;87.40
53689;BME280;39583;54.682;30.662;2023-04-27T14:56:23;99204.63;;;8.65;87.28
53689;BME280;39583;54.682;30.662;2023-04-27T14:58:49;99203.25;;;8.49;86.97
53689;BME280;39583;54.682;30.662;2023-04-27T15:01:16;99217.13;;;8.39;87.71
53689;BME280;39583;54.682;30.662;2023-04-27T15:03:42;99212.19;;;8.36;87.92
53689;BME280;39583;54.682;30.662;2023-04-27T15:06:08;99203.53;;;8.34;88.38
53689;BME280;39583;54.682;30.662;2023-04-27T15:08:34;99213.19;;;8.28;88.44
53689;BME280;39583;54.682;30.662;2023-04-27T15:11:01;99218.16;;;8.25;89.01
53689;BME280;39583;54.682;30.662;2023-04-27T15:13:29;99221.47;;;8.20;88.92
53689;BME280;39583;54.682;30.662;2023-04-27T15:15:57;99208.06;;;8.20;89.07
53689;BME280;39583;54.682;30.662;2023-04-27T15:18:24;99212.38;;;8.28;89.52
53689;BME280;39583;54.682;30.662;2023-04-27T15:20:53;99200.00;;;8.27;89.03
53689;BME280;39583;54.682;30.662;2023-04-27T15:23:20;99202.84;;;8.32;89.40
53689;BME280;39583;54.682;30.662;2023-04-27T15:25:48;99211.31;;;8.29;89.03
53689;BME280;39583;54.682;30.662;2023-04-27T15:28:16;99215.03;;;8.28;89.60
53689;BME280;39583;54.682;30.662;2023-04-27T15:30:43;99219.16;;;8.31;89.48
53689;BME280;39583;54.682;30.662;2023-04-27T15:33:10;99209.84;;;8.33;89.86
53689;BME280;39583;54.682;30.662;2023-04-27T15:35:36;99215.41;;;8.51;90.76
53689;BME280;39583;54.682;30.662;2023-04-27T15:38:06;99213.88;;;8.69;90.34
53689;BME280;39583;54.682;30.662;2023-04-27T15:40:33;99217.38;;;8.76;90.25
53689;BME280;39583;54.682;30.662;2023-04-27T15:42:59;99209.56;;;8.68;89.68
53689;BME280;39583;54.682;30.662;2023-04-27T15:45:27;99212.44;;;8.73;89.80
53689;BME280;39583;54.682;30.662;2023-04-27T15:47:53;99218.97;;;8.83;90.36
53689;BME280;39583;54.682;30.662;2023-04-27T15:50:20;99225.16;;;8.91;90.10
53689;BME280;39583;54.682;30.662;2023-04-27T15:52:46;99226.19;;;8.90;89.90
53689;BME280;39583;54.682;30.662;2023-04-27T15:55:12;99225.53;;;8.94;89.90
53689;BME280;39583;54.682;30.662;2023-04-27T15:57:38;99227.19;;;8.95;89.88
53689;BME280;39583;54.682;30.662;2023-04-27T16:00:05;99202.31;;;8.68;89.22
53689;BME280;39583;54.682;30.662;2023-04-27T16:02:37;99232.06;;;8.73;89.90
53689;BME280;39583;54.682;30.662;2023-04-27T16:05:07;99240.34;;;8.65;89.53
53689;BME280;39583;54.682;30.662;2023-04-27T16:07:34;99225.13;;;8.52;89.51
53689;BME280;39583;54.682;30.662;2023-04-27T16:10:01;99229.88;;;8.44;89.83
53689;BME280;39583;54.682;30.662;2023-04-27T16:12:27;99234.19;;;8.51;90.54
53689;BME280;39583;54.682;30.662;2023-04-27T16:14:53;99238.50;;;8.59;90.48
53689;BME280;39583;54.682;30.662;2023-04-27T16:17:22;99245.94;;;8.57;90.18
53689;BME280;39583;54.682;30.662;2023-04-27T16:19:49;99241.22;;;8.52;89.96
53689;BME280;39583;54.682;30.662;2023-04-27T16:22:15;99240.78;;;8.55;90.44
53689;BME280;39583;54.682;30.662;2023-04-27T16:24:42;99253.16;;;8.56;90.09
53689;BME280;39583;54.682;30.662;2023-04-27T16:27:10;99254.25;;;8.49;90.13
53689;BME280;39583;54.682;30.662;2023-04-27T16:29:36;99243.91;;;8.52;90.36
53689;BME280;39583;54.682;30.662;2023-04-27T16:32:02;99235.06;;;8.39;90.15
53689;BME280;39583;54.682;30.662;2023-04-27T16:34:28;99255.28;;;8.48;89.97
53689;BME280;39583;54.682;30.662;2023-04-27T16:36:54;99258.34;;;8.45;90.18
53689;BME280;39583;54.682;30.662;2023-04-27T16:39:21;99260.66;;;8.41;90.06
53689;BME280;39583;54.682;30.662;2023-04-27T16:41:47;99269.34;;;8.37;90.11
53689;BME280;39583;54.682;30.662;2023-04-27T16:44:14;99261.47;;;8.28;89.45
53689;BME280;39583;54.682;30.662;2023-04-27T16:46:40;99261.28;;;8.23;90.02
53689;BME280;39583;54.682;30.662;2023-04-27T16:49:06;99268.50;;;8.23;89.99
53689;BME280;39583;54.682;30.662;2023-04-27T16:51:32;99266.66;;;8.17;89.72
53689;BME280;39583;54.682;30.662;2023-04-27T16:54:00;99280.47;;;8.14;89.62
53689;BME280;39583;54.682;30.662;2023-04-27T16:56:27;99276.56;;;8.10;89.32
53689;BME280;39583;54.682;30.662;2023-04-27T16:58:53;99271.00;;;8.05;89.92
53689;BME280;39583;54.682;30.662;2023-04-27T17:01:22;99279.88;;;8.12;89.62
53689;BME280;39583;54.682;30.662;2023-04-27T17:03:48;99284.63;;;8.10;89.96
53689;BME280;39583;54.682;30.662;2023-04-27T17:06:15;99280.09;;;8.10;89.84
53689;BME280;39583;54.682;30.662;2023-04-27T17:08:41;99274.50;;;8.05;90.35
53689;BME280;39583;54.682;30.662;2023-04-27T17:11:08;99287.31;;;8.10;90.10
53689;BME280;39583;54.682;30.662;2023-04-27T17:13:36;99290.59;;;8.05;90.25
53689;BME280;39583;54.682;30.662;2023-04-27T17:16:06;99293.47;;;8.04;90.37
53689;BME280;39583;54.682;30.662;2023-04-27T17:18:36;99298.84;;;8.04;90.30
53689;BME280;39583;54.682;30.662;2023-04-27T17:21:02;99303.38;;;8.03;90.52
53689;BME280;39583;54.682;30.662;2023-04-27T17:23:29;99302.16;;;7.99;90.34
53689;BME280;39583;54.682;30.662;2023-04-27T17:25:56;99292.66;;;7.90;90.16
53689;BME280;39583;54.682;30.662;2023-04-27T17:28:22;99297.00;;;7.91;90.23
53689;BME280;39583;54.682;30.662;2023-04-27T17:30:48;99303.59;;;7.88;90.42
53689;BME280;39583;54.682;30.662;2023-04-27T17:33:14;99307.94;;;7.83;90.67
53689;BME280;39583;54.682;30.662;2023-04-27T17:35:43;99310.63;;;7.83;90.80
53689;BME280;39583;54.682;30.662;2023-04-27T17:38:12;99314.94;;;7.84;90.79
53689;BME280;39583;54.682;30.662;2023-04-27T17:40:38;99316.59;;;7.85;90.75
53689;BME280;39583;54.682;30.662;2023-04-27T17:43:04;99289.56;;;7.73;91.33
53689;BME280;39583;54.682;30.662;2023-04-27T17:45:30;99313.50;;;7.88;91.37
53689;BME280;39583;54.682;30.662;2023-04-27T17:47:57;99309.59;;;7.84;91.22
53689;BME280;39583;54.682;30.662;2023-04-27T17:50:24;99311.81;;;7.80;91.34
53689;BME280;39583;54.682;30.662;2023-04-27T17:52:50;99311.00;;;7.80;91.37
53689;BME280;39583;54.682;30.662;2023-04-27T17:55:16;99325.44;;;7.79;91.60
53689;BME280;39583;54.682;30.662;2023-04-27T17:57:42;99327.28;;;7.78;91.71
53689;BME280;39583;54.682;30.662;2023-04-27T18:00:09;99330.59;;;7.80;91.79
53689;BME280;39583;54.682;30.662;2023-04-27T18:02:37;99342.34;;;7.79;91.90
53689;BME280;39583;54.682;30.662;2023-04-27T18:05:04;99334.72;;;7.76;91.66
53689;BME280;39583;54.682;30.662;2023-04-27T18:07:32;99343.59;;;7.77;92.05
53689;BME280;39583;54.682;30.662;2023-04-27T18:09:58;99346.25;;;7.77;92.13
53689;BME280;39583;54.682;30.662;2023-04-27T18:12:24;99340.69;;;7.78;92.22
53689;BME280;39583;54.682;30.662;2023-04-27T18:14:50;99346.69;;;7.74;92.04
53689;BME280;39583;54.682;30.662;2023-04-27T18:17:17;99341.13;;;7.68;91.93
53689;BME280;39583;54.682;30.662;2023-04-27T18:19:43;99345.63;;;7.68;91.93
53689;BME280;39583;54.682;30.662;2023-04-27T18:22:09;99345.84;;;7.66;91.83
53689;BME280;39583;54.682;30.662;2023-04-27T18:24:35;99341.28;;;7.67;92.00
53689;BME280;39583;54.682;30.662;2023-04-27T18:27:01;99343.16;;;7.66;92.16
53689;BME280;39583;54.682;30.662;2023-04-27T18:29:30;99351.19;;;7.66;91.94
53689;BME280;39583;54.682;30.662;2023-04-27T18:31:56;99331.81;;;7.64;92.36
53689;BME280;39583;54.682;30.662;2023-04-27T18:34:23;99329.56;;;7.61;92.29
53689;BME280;39583;54.682;30.662;2023-04-27T18:36:49;99343.34;;;7.65;92.45
53689;BME280;39583;54.682;30.662;2023-04-27T18:39:16;99325.00;;;7.49;92.62
53689;BME280;39583;54.682;30.662;2023-04-27T18:41:42;99344.19;;;7.65;92.48
53689;BME280;39583;54.682;30.662;2023-04-27T18:44:08;99345.84;;;7.66;92.41
53689;BME280;39583;54.682;30.662;2023-04-27T18:46:34;99350.56;;;7.64;92.62
53689;BME280;39583;54.682;30.662;2023-04-27T18:49:00;99354.28;;;7.63;92.48
53689;BME280;39583;54.682;30.662;2023-04-27T18:51:26;99347.91;;;7.64;92.63
53689;BME280;39583;54.682;30.662;2023-04-27T18:53:56;99339.03;;;7.64;92.70
53689;BME280;39583;54.682;30.662;2023-04-27T18:56:22;99329.34;;;7.56;92.46
53689;BME280;39583;54.682;30.662;2023-04-27T18:58:49;99329.72;;;7.53;92.36
